Lester Prairie, MN (55354)

11:26 AM CDT on April 28, 2017 (GMT -0500)
Coldwater Crossing | | Change Station

Elev 963 ft 44.89 °N, 93.90 °W | Updated 16 seconds ago

Mostly Cloudy
Mostly Cloudy
41.0 °F
Feels Like 39 °F
N
3.1
Wind Variable Wind from North
Gusts 4.9 mph

Today
High -- | Low -- °F
--% Chance of Precip.
Yesterday
High -- | Low -- °F
Precip. -- in
Pressure 29.95 in
Visibility 10.0 miles
Clouds Scattered Clouds 2600 ft
Windchill 39 °F
Dew Point 27 °F
Humidity 57%
Rainfall 0.00 in
Snow Depth Not available.
6:09 AM 8:18 PM
Waxing Crescent, 7% visible
METAR KGYL 281616Z AUTO 35006KT 10SM SCT026 05/00 A2995 RMK AO2 T00510002
Pressure 29.95 in
Visibility 10.0 miles
Clouds Scattered Clouds 2600 ft
Windchill 39 °F
Dew Point 27 °F
Humidity 57%
Rainfall 0.00 in
Snow Depth Not available.
6:09 AM 8:18 PM
Waxing Crescent, 7% visible
METAR KGYL 281616Z AUTO 35006KT 10SM SCT026 05/00 A2995 RMK AO2 T00510002

Get Severe Weather Alerts

Thanks for signing up!

Be on the lookout for a verification email in your inbox.

You'll start receiving the daily forecast at 8 AM.

×

10-Day Weather Forecast

Almanac

Astronomy

Apr. 28, 2017 Rise Set
Actual Time
Civil Twilight
Nautical Twilight
Astronomical Twilight
Moon
Length of Visible Light
Length of Day
Tomorrow will be .
, % of the Moon is Illuminated

Today's Extremes

State Highs State Lows

Community

WunderPhotos

WunderBlog® & News

Nearby

Air Quality

  Air Quality AQ Index Pollutant
Not available.

Snow Depth

Station Depth Elevation

Earthquake Activity

City Distance Mag. Time & Date
Minimum magnitude displayed is 2.5.

Coastal Water Temperatures

Place Temperature

Stations

Nearby Weather Stations

Station Location Temp. Windchill Dew Point Humidity Wind Precip. Elev Updated Type
                   

Watches & Warnings

There are currently no watches in effect.